sensor_id;sensor_type;location;lat;lon;timestamp;P1;durP1;ratioP1;P2;durP2;ratioP2
15454;SDS011;21057;51.024;7.540;2022-07-29T00:02:02;14.52;;;12.63;;
15454;SDS011;21057;51.024;7.540;2022-07-29T00:04:29;12.95;;;12.15;;
15454;SDS011;21057;51.024;7.540;2022-07-29T00:06:57;13.18;;;12.13;;
15454;SDS011;21057;51.024;7.540;2022-07-29T00:09:24;13.13;;;12.43;;
15454;SDS011;21057;51.024;7.540;2022-07-29T00:11:51;13.18;;;12.35;;
15454;SDS011;21057;51.024;7.540;2022-07-29T00:14:18;12.90;;;12.20;;
15454;SDS011;21057;51.024;7.540;2022-07-29T00:16:45;12.73;;;12.02;;
15454;SDS011;21057;51.024;7.540;2022-07-29T00:19:13;13.07;;;12.07;;
15454;SDS011;21057;51.024;7.540;2022-07-29T00:21:40;13.15;;;12.35;;
15454;SDS011;21057;51.024;7.540;2022-07-29T00:24:08;13.00;;;12.30;;
15454;SDS011;21057;51.024;7.540;2022-07-29T00:26:35;12.43;;;11.63;;
15454;SDS011;21057;51.024;7.540;2022-07-29T00:29:03;13.13;;;12.13;;
15454;SDS011;21057;51.024;7.540;2022-07-29T00:31:30;13.13;;;12.32;;
15454;SDS011;21057;51.024;7.540;2022-07-29T00:33:57;12.63;;;11.80;;
15454;SDS011;21057;51.024;7.540;2022-07-29T00:36:24;12.57;;;11.88;;
15454;SDS011;21057;51.024;7.540;2022-07-29T00:38:50;12.75;;;12.05;;
15454;SDS011;21057;51.024;7.540;2022-07-29T00:41:19;12.50;;;11.75;;
15454;SDS011;21057;51.024;7.540;2022-07-29T00:43:46;12.85;;;12.13;;
15454;SDS011;21057;51.024;7.540;2022-07-29T00:46:13;12.68;;;11.88;;
15454;SDS011;21057;51.024;7.540;2022-07-29T00:48:40;12.68;;;11.77;;
15454;SDS011;21057;51.024;7.540;2022-07-29T00:51:06;12.85;;;12.05;;
15454;SDS011;21057;51.024;7.540;2022-07-29T00:53:35;12.98;;;12.18;;
15454;SDS011;21057;51.024;7.540;2022-07-29T00:56:03;12.68;;;11.93;;
15454;SDS011;21057;51.024;7.540;2022-07-29T00:58:32;13.30;;;12.25;;
15454;SDS011;21057;51.024;7.540;2022-07-29T01:00:58;13.25;;;12.45;;
15454;SDS011;21057;51.024;7.540;2022-07-29T01:03:25;13.13;;;12.23;;
15454;SDS011;21057;51.024;7.540;2022-07-29T01:05:52;13.10;;;12.40;;
15454;SDS011;21057;51.024;7.540;2022-07-29T01:08:20;13.32;;;12.63;;
15454;SDS011;21057;51.024;7.540;2022-07-29T01:10:47;13.52;;;12.63;;
15454;SDS011;21057;51.024;7.540;2022-07-29T01:13:15;13.43;;;12.63;;
15454;SDS011;21057;51.024;7.540;2022-07-29T01:15:45;13.57;;;12.77;;
15454;SDS011;21057;51.024;7.540;2022-07-29T01:18:18;13.40;;;12.63;;
15454;SDS011;21057;51.024;7.540;2022-07-29T01:20:55;13.80;;;13.00;;
15454;SDS011;21057;51.024;7.540;2022-07-29T01:23:52;13.43;;;12.57;;
15454;SDS011;21057;51.024;7.540;2022-07-29T01:26:39;13.20;;;12.35;;
15454;SDS011;21057;51.024;7.540;2022-07-29T01:29:13;13.88;;;12.98;;
15454;SDS011;21057;51.024;7.540;2022-07-29T01:31:50;13.93;;;12.60;;
15454;SDS011;21057;51.024;7.540;2022-07-29T01:34:23;13.50;;;12.50;;
15454;SDS011;21057;51.024;7.540;2022-07-29T01:36:55;13.27;;;12.52;;
15454;SDS011;21057;51.024;7.540;2022-07-29T01:39:30;13.90;;;12.65;;
15454;SDS011;21057;51.024;7.540;2022-07-29T01:41:59;13.05;;;12.35;;
15454;SDS011;21057;51.024;7.540;2022-07-29T01:44:34;13.43;;;12.63;;
15454;SDS011;21057;51.024;7.540;2022-07-29T01:47:10;13.93;;;13.02;;
15454;SDS011;21057;51.024;7.540;2022-07-29T01:49:43;13.48;;;12.63;;
15454;SDS011;21057;51.024;7.540;2022-07-29T01:52:15;13.57;;;12.60;;
15454;SDS011;21057;51.024;7.540;2022-07-29T01:54:48;13.48;;;12.68;;
15454;SDS011;21057;51.024;7.540;2022-07-29T01:57:20;13.40;;;12.50;;
15454;SDS011;21057;51.024;7.540;2022-07-29T01:59:52;13.30;;;12.60;;
15454;SDS011;21057;51.024;7.540;2022-07-29T02:02:22;13.00;;;12.20;;
15454;SDS011;21057;51.024;7.540;2022-07-29T02:04:50;13.95;;;13.07;;
15454;SDS011;21057;51.024;7.540;2022-07-29T02:07:19;13.60;;;12.60;;
15454;SDS011;21057;51.024;7.540;2022-07-29T02:09:47;12.55;;;11.85;;
15454;SDS011;21057;51.024;7.540;2022-07-29T02:12:17;12.50;;;11.80;;
15454;SDS011;21057;51.024;7.540;2022-07-29T02:14:47;12.88;;;12.07;;
15454;SDS011;21057;51.024;7.540;2022-07-29T02:17:18;12.70;;;12.00;;
15454;SDS011;21057;51.024;7.540;2022-07-29T02:19:49;13.07;;;12.27;;
15454;SDS011;21057;51.024;7.540;2022-07-29T02:22:17;13.10;;;12.40;;
15454;SDS011;21057;51.024;7.540;2022-07-29T02:24:45;13.85;;;12.75;;
15454;SDS011;21057;51.024;7.540;2022-07-29T02:27:13;13.63;;;12.73;;
15454;SDS011;21057;51.024;7.540;2022-07-29T02:29:41;13.73;;;12.57;;
15454;SDS011;21057;51.024;7.540;2022-07-29T02:32:09;13.32;;;12.40;;
15454;SDS011;21057;51.024;7.540;2022-07-29T02:34:40;13.10;;;12.20;;
15454;SDS011;21057;51.024;7.540;2022-07-29T02:37:09;13.50;;;12.60;;
15454;SDS011;21057;51.024;7.540;2022-07-29T02:39:37;13.60;;;12.75;;
15454;SDS011;21057;51.024;7.540;2022-07-29T02:42:09;13.63;;;12.70;;
15454;SDS011;21057;51.024;7.540;2022-07-29T02:44:38;13.55;;;12.57;;
15454;SDS011;21057;51.024;7.540;2022-07-29T02:47:07;13.20;;;12.40;;
15454;SDS011;21057;51.024;7.540;2022-07-29T02:49:42;13.25;;;12.30;;
15454;SDS011;21057;51.024;7.540;2022-07-29T02:52:18;13.32;;;12.60;;
15454;SDS011;21057;51.024;7.540;2022-07-29T02:54:50;13.48;;;12.68;;
15454;SDS011;21057;51.024;7.540;2022-07-29T02:57:21;13.43;;;12.43;;
15454;SDS011;21057;51.024;7.540;2022-07-29T02:59:55;13.00;;;12.20;;
15454;SDS011;21057;51.024;7.540;2022-07-29T03:02:25;13.43;;;12.63;;
15454;SDS011;21057;51.024;7.540;2022-07-29T03:04:54;13.68;;;12.77;;
15454;SDS011;21057;51.024;7.540;2022-07-29T03:07:23;13.77;;;12.98;;
15454;SDS011;21057;51.024;7.540;2022-07-29T03:09:52;13.18;;;12.38;;
15454;SDS011;21057;51.024;7.540;2022-07-29T03:12:20;13.32;;;12.43;;
15454;SDS011;21057;51.024;7.540;2022-07-29T03:14:48;13.02;;;12.30;;
15454;SDS011;21057;51.024;7.540;2022-07-29T03:17:15;13.38;;;12.48;;
15454;SDS011;21057;51.024;7.540;2022-07-29T03:19:42;13.00;;;12.23;;
15454;SDS011;21057;51.024;7.540;2022-07-29T03:22:11;12.80;;;12.00;;
15454;SDS011;21057;51.024;7.540;2022-07-29T03:24:38;12.48;;;11.77;;
15454;SDS011;21057;51.024;7.540;2022-07-29T03:27:05;12.75;;;11.98;;
15454;SDS011;21057;51.024;7.540;2022-07-29T03:29:32;12.85;;;12.05;;
15454;SDS011;21057;51.024;7.540;2022-07-29T03:32:00;13.43;;;12.63;;
15454;SDS011;21057;51.024;7.540;2022-07-29T03:34:28;12.77;;;11.98;;
15454;SDS011;21057;51.024;7.540;2022-07-29T03:36:55;12.50;;;11.73;;
15454;SDS011;21057;51.024;7.540;2022-07-29T03:39:24;12.55;;;11.77;;
15454;SDS011;21057;51.024;7.540;2022-07-29T03:41:56;12.90;;;11.88;;
15454;SDS011;21057;51.024;7.540;2022-07-29T03:44:25;12.13;;;11.40;;
15454;SDS011;21057;51.024;7.540;2022-07-29T03:46:55;12.57;;;11.88;;
15454;SDS011;21057;51.024;7.540;2022-07-29T03:49:23;12.43;;;11.52;;
15454;SDS011;21057;51.024;7.540;2022-07-29T03:51:53;12.32;;;11.43;;
15454;SDS011;21057;51.024;7.540;2022-07-29T03:54:20;13.10;;;12.00;;
15454;SDS011;21057;51.024;7.540;2022-07-29T03:56:48;12.70;;;11.90;;
15454;SDS011;21057;51.024;7.540;2022-07-29T03:59:18;12.50;;;11.80;;
15454;SDS011;21057;51.024;7.540;2022-07-29T04:01:47;13.18;;;12.30;;
15454;SDS011;21057;51.024;7.540;2022-07-29T04:04:14;13.23;;;12.27;;
15454;SDS011;21057;51.024;7.540;2022-07-29T04:06:42;13.82;;;12.88;;
15454;SDS011;21057;51.024;7.540;2022-07-29T04:09:11;13.00;;;12.30;;
15454;SDS011;21057;51.024;7.540;2022-07-29T04:11:39;14.05;;;13.07;;
15454;SDS011;21057;51.024;7.540;2022-07-29T04:14:08;13.07;;;12.25;;
15454;SDS011;21057;51.024;7.540;2022-07-29T04:16:35;13.43;;;12.63;;
15454;SDS011;21057;51.024;7.540;2022-07-29T04:19:02;14.07;;;13.25;;
15454;SDS011;21057;51.024;7.540;2022-07-29T04:21:29;13.43;;;12.73;;
15454;SDS011;21057;51.024;7.540;2022-07-29T04:23:56;14.23;;;13.07;;
15454;SDS011;21057;51.024;7.540;2022-07-29T04:26:22;14.13;;;13.20;;
15454;SDS011;21057;51.024;7.540;2022-07-29T04:28:49;13.68;;;12.88;;
15454;SDS011;21057;51.024;7.540;2022-07-29T04:31:18;14.25;;;13.45;;
15454;SDS011;21057;51.024;7.540;2022-07-29T04:33:44;13.70;;;12.90;;
15454;SDS011;21057;51.024;7.540;2022-07-29T04:36:11;14.10;;;13.30;;
15454;SDS011;21057;51.024;7.540;2022-07-29T04:38:38;14.98;;;13.65;;
15454;SDS011;21057;51.024;7.540;2022-07-29T04:41:05;14.13;;;13.13;;
15454;SDS011;21057;51.024;7.540;2022-07-29T04:43:33;13.63;;;12.88;;
15454;SDS011;21057;51.024;7.540;2022-07-29T04:46:00;14.38;;;13.10;;
15454;SDS011;21057;51.024;7.540;2022-07-29T04:48:28;13.63;;;12.63;;
15454;SDS011;21057;51.024;7.540;2022-07-29T04:50:55;13.80;;;12.90;;
15454;SDS011;21057;51.024;7.540;2022-07-29T04:53:22;14.07;;;12.95;;
15454;SDS011;21057;51.024;7.540;2022-07-29T04:55:49;14.75;;;13.65;;
15454;SDS011;21057;51.024;7.540;2022-07-29T04:58:16;13.82;;;12.90;;
15454;SDS011;21057;51.024;7.540;2022-07-29T05:00:43;13.75;;;12.98;;
15454;SDS011;21057;51.024;7.540;2022-07-29T05:03:10;13.95;;;13.25;;
15454;SDS011;21057;51.024;7.540;2022-07-29T05:05:38;15.02;;;14.13;;
15454;SDS011;21057;51.024;7.540;2022-07-29T05:08:06;14.63;;;13.82;;
15454;SDS011;21057;51.024;7.540;2022-07-29T05:10:33;14.80;;;13.80;;
15454;SDS011;21057;51.024;7.540;2022-07-29T05:13:03;14.38;;;13.48;;
15454;SDS011;21057;51.024;7.540;2022-07-29T05:15:30;14.68;;;13.65;;
15454;SDS011;21057;51.024;7.540;2022-07-29T05:17:57;14.60;;;13.80;;
15454;SDS011;21057;51.024;7.540;2022-07-29T05:20:24;15.10;;;14.10;;
15454;SDS011;21057;51.024;7.540;2022-07-29T05:22:54;14.65;;;13.60;;
15454;SDS011;21057;51.024;7.540;2022-07-29T05:25:22;14.63;;;13.70;;
15454;SDS011;21057;51.024;7.540;2022-07-29T05:27:49;13.80;;;13.00;;
15454;SDS011;21057;51.024;7.540;2022-07-29T05:30:16;14.30;;;13.38;;
15454;SDS011;21057;51.024;7.540;2022-07-29T05:32:43;14.48;;;13.57;;
15454;SDS011;21057;51.024;7.540;2022-07-29T05:35:10;15.20;;;14.30;;
15454;SDS011;21057;51.024;7.540;2022-07-29T05:37:38;15.35;;;14.35;;
15454;SDS011;21057;51.024;7.540;2022-07-29T05:40:07;15.07;;;14.07;;
15454;SDS011;21057;51.024;7.540;2022-07-29T05:42:35;15.18;;;14.27;;
15454;SDS011;21057;51.024;7.540;2022-07-29T05:45:02;16.05;;;14.82;;
15454;SDS011;21057;51.024;7.540;2022-07-29T05:47:30;15.25;;;14.18;;
15454;SDS011;21057;51.024;7.540;2022-07-29T05:49:57;14.80;;;13.90;;
15454;SDS011;21057;51.024;7.540;2022-07-29T05:52:24;15.50;;;14.60;;
15454;SDS011;21057;51.024;7.540;2022-07-29T05:54:51;14.93;;;14.10;;
15454;SDS011;21057;51.024;7.540;2022-07-29T05:57:19;14.75;;;13.85;;
15454;SDS011;21057;51.024;7.540;2022-07-29T05:59:47;15.75;;;14.75;;
15454;SDS011;21057;51.024;7.540;2022-07-29T06:02:15;15.38;;;14.48;;
15454;SDS011;21057;51.024;7.540;2022-07-29T06:04:43;16.02;;;14.82;;
15454;SDS011;21057;51.024;7.540;2022-07-29T06:07:10;15.23;;;14.02;;
15454;SDS011;21057;51.024;7.540;2022-07-29T06:09:37;14.77;;;13.88;;
15454;SDS011;21057;51.024;7.540;2022-07-29T06:12:04;15.05;;;14.07;;
15454;SDS011;21057;51.024;7.540;2022-07-29T06:14:33;15.27;;;14.38;;
15454;SDS011;21057;51.024;7.540;2022-07-29T06:17:00;14.95;;;14.02;;
15454;SDS011;21057;51.024;7.540;2022-07-29T06:19:27;16.33;;;15.10;;
15454;SDS011;21057;51.024;7.540;2022-07-29T06:21:54;15.45;;;14.45;;
15454;SDS011;21057;51.024;7.540;2022-07-29T06:24:21;15.52;;;14.48;;
15454;SDS011;21057;51.024;7.540;2022-07-29T06:26:48;15.65;;;14.30;;
15454;SDS011;21057;51.024;7.540;2022-07-29T06:29:14;15.38;;;14.48;;
15454;SDS011;21057;51.024;7.540;2022-07-29T06:31:43;15.25;;;14.35;;
15454;SDS011;21057;51.024;7.540;2022-07-29T06:34:10;15.27;;;14.30;;
15454;SDS011;21057;51.024;7.540;2022-07-29T06:36:37;15.07;;;14.07;;
15454;SDS011;21057;51.024;7.540;2022-07-29T06:39:04;14.82;;;13.80;;
15454;SDS011;21057;51.024;7.540;2022-07-29T06:41:32;15.02;;;14.00;;
15454;SDS011;21057;51.024;7.540;2022-07-29T06:43:59;14.48;;;13.40;;
15454;SDS011;21057;51.024;7.540;2022-07-29T06:46:26;14.52;;;13.73;;
15454;SDS011;21057;51.024;7.540;2022-07-29T06:48:55;15.10;;;14.20;;
15454;SDS011;21057;51.024;7.540;2022-07-29T06:51:22;14.68;;;13.68;;
15454;SDS011;21057;51.024;7.540;2022-07-29T06:53:49;14.70;;;13.60;;
15454;SDS011;21057;51.024;7.540;2022-07-29T06:56:16;15.15;;;13.95;;
15454;SDS011;21057;51.024;7.540;2022-07-29T06:58:43;14.25;;;13.45;;
15454;SDS011;21057;51.024;7.540;2022-07-29T07:01:10;14.65;;;13.75;;
15454;SDS011;21057;51.024;7.540;2022-07-29T07:03:37;15.30;;;14.30;;
15454;SDS011;21057;51.024;7.540;2022-07-29T07:06:06;14.82;;;13.82;;
15454;SDS011;21057;51.024;7.540;2022-07-29T07:08:32;14.52;;;13.73;;
15454;SDS011;21057;51.024;7.540;2022-07-29T07:10:59;15.85;;;14.23;;
15454;SDS011;21057;51.024;7.540;2022-07-29T07:13:26;15.10;;;14.30;;
15454;SDS011;21057;51.024;7.540;2022-07-29T07:15:59;14.93;;;14.02;;
15454;SDS011;21057;51.024;7.540;2022-07-29T07:18:26;14.45;;;13.43;;
15454;SDS011;21057;51.024;7.540;2022-07-29T07:20:53;15.18;;;14.05;;
15454;SDS011;21057;51.024;7.540;2022-07-29T07:23:22;14.88;;;13.50;;
15454;SDS011;21057;51.024;7.540;2022-07-29T07:25:49;14.48;;;13.48;;
15454;SDS011;21057;51.024;7.540;2022-07-29T07:28:16;14.60;;;13.80;;
15454;SDS011;21057;51.024;7.540;2022-07-29T07:30:44;14.65;;;13.73;;
15454;SDS011;21057;51.024;7.540;2022-07-29T07:33:11;15.18;;;13.82;;
15454;SDS011;21057;51.024;7.540;2022-07-29T07:35:38;14.82;;;13.65;;
15454;SDS011;21057;51.024;7.540;2022-07-29T07:38:05;14.48;;;13.55;;
15454;SDS011;21057;51.024;7.540;2022-07-29T07:40:34;14.27;;;13.48;;
15454;SDS011;21057;51.024;7.540;2022-07-29T07:43:02;15.10;;;14.20;;
15454;SDS011;21057;51.024;7.540;2022-07-29T07:45:29;15.50;;;14.30;;
15454;SDS011;21057;51.024;7.540;2022-07-29T07:47:57;14.82;;;13.90;;
15454;SDS011;21057;51.024;7.540;2022-07-29T07:50:24;15.25;;;14.15;;
15454;SDS011;21057;51.024;7.540;2022-07-29T07:52:52;14.65;;;13.63;;
15454;SDS011;21057;51.024;7.540;2022-07-29T07:55:22;15.25;;;14.15;;
15454;SDS011;21057;51.024;7.540;2022-07-29T07:57:51;14.35;;;13.30;;
15454;SDS011;21057;51.024;7.540;2022-07-29T08:00:18;14.90;;;13.80;;
15454;SDS011;21057;51.024;7.540;2022-07-29T08:02:45;14.70;;;13.60;;
15454;SDS011;21057;51.024;7.540;2022-07-29T08:05:13;14.07;;;13.27;;
15454;SDS011;21057;51.024;7.540;2022-07-29T08:07:42;14.27;;;13.48;;
15454;SDS011;21057;51.024;7.540;2022-07-29T08:10:10;14.18;;;13.27;;
15454;SDS011;21057;51.024;7.540;2022-07-29T08:12:38;15.48;;;14.00;;
15454;SDS011;21057;51.024;7.540;2022-07-29T08:15:07;14.43;;;13.50;;
15454;SDS011;21057;51.024;7.540;2022-07-29T08:17:34;15.07;;;14.13;;
15454;SDS011;21057;51.024;7.540;2022-07-29T08:20:01;15.23;;;14.23;;
15454;SDS011;21057;51.024;7.540;2022-07-29T08:22:29;15.63;;;14.73;;
15454;SDS011;21057;51.024;7.540;2022-07-29T08:24:56;14.95;;;13.85;;
15454;SDS011;21057;51.024;7.540;2022-07-29T08:27:23;14.38;;;13.38;;
15454;SDS011;21057;51.024;7.540;2022-07-29T08:29:51;14.77;;;13.88;;
15454;SDS011;21057;51.024;7.540;2022-07-29T08:32:22;14.35;;;13.30;;
15454;SDS011;21057;51.024;7.540;2022-07-29T08:34:49;13.95;;;13.05;;
15454;SDS011;21057;51.024;7.540;2022-07-29T08:37:16;15.13;;;14.23;;
15454;SDS011;21057;51.024;7.540;2022-07-29T08:39:45;16.25;;;15.15;;
15454;SDS011;21057;51.024;7.540;2022-07-29T08:42:12;16.73;;;15.82;;
15454;SDS011;21057;51.024;7.540;2022-07-29T08:44:40;16.00;;;15.10;;
15454;SDS011;21057;51.024;7.540;2022-07-29T08:47:07;15.52;;;14.32;;
15454;SDS011;21057;51.024;7.540;2022-07-29T08:49:36;16.13;;;15.15;;
15454;SDS011;21057;51.024;7.540;2022-07-29T08:52:03;16.70;;;15.55;;
15454;SDS011;21057;51.024;7.540;2022-07-29T08:54:31;16.13;;;14.98;;
15454;SDS011;21057;51.024;7.540;2022-07-29T08:56:58;16.70;;;15.70;;
15454;SDS011;21057;51.024;7.540;2022-07-29T08:59:27;16.42;;;15.43;;
15454;SDS011;21057;51.024;7.540;2022-07-29T09:01:57;17.38;;;16.13;;
15454;SDS011;21057;51.024;7.540;2022-07-29T09:04:26;17.42;;;16.17;;
15454;SDS011;21057;51.024;7.540;2022-07-29T09:06:59;17.23;;;15.88;;
15454;SDS011;21057;51.024;7.540;2022-07-29T09:09:29;17.25;;;16.20;;
15454;SDS011;21057;51.024;7.540;2022-07-29T09:11:58;16.67;;;15.68;;
15454;SDS011;21057;51.024;7.540;2022-07-29T09:14:25;17.05;;;15.85;;
15454;SDS011;21057;51.024;7.540;2022-07-29T09:16:53;16.63;;;15.73;;
15454;SDS011;21057;51.024;7.540;2022-07-29T09:19:22;16.73;;;15.70;;
15454;SDS011;21057;51.024;7.540;2022-07-29T09:21:50;17.67;;;16.63;;
15454;SDS011;21057;51.024;7.540;2022-07-29T09:24:26;16.17;;;15.27;;
15454;SDS011;21057;51.024;7.540;2022-07-29T09:27:04;17.35;;;16.15;;
15454;SDS011;21057;51.024;7.540;2022-07-29T09:29:44;17.10;;;16.00;;
15454;SDS011;21057;51.024;7.540;2022-07-29T09:32:11;16.60;;;15.60;;
15454;SDS011;21057;51.024;7.540;2022-07-29T09:34:38;16.98;;;15.88;;
15454;SDS011;21057;51.024;7.540;2022-07-29T09:37:05;17.13;;;16.10;;
15454;SDS011;21057;51.024;7.540;2022-07-29T09:39:35;17.10;;;15.90;;
15454;SDS011;21057;51.024;7.540;2022-07-29T09:42:03;17.02;;;15.82;;
15454;SDS011;21057;51.024;7.540;2022-07-29T09:44:41;15.82;;;14.75;;
15454;SDS011;21057;51.024;7.540;2022-07-29T09:47:13;16.10;;;15.10;;
15454;SDS011;21057;51.024;7.540;2022-07-29T09:49:50;16.45;;;15.40;;
15454;SDS011;21057;51.024;7.540;2022-07-29T09:52:20;15.55;;;14.65;;
15454;SDS011;21057;51.024;7.540;2022-07-29T09:54:48;15.65;;;14.75;;
15454;SDS011;21057;51.024;7.540;2022-07-29T09:57:22;15.80;;;14.80;;
15454;SDS011;21057;51.024;7.540;2022-07-29T09:59:57;15.68;;;14.65;;
15454;SDS011;21057;51.024;7.540;2022-07-29T10:02:29;15.57;;;14.48;;
15454;SDS011;21057;51.024;7.540;2022-07-29T10:04:57;15.13;;;14.23;;
15454;SDS011;21057;51.024;7.540;2022-07-29T10:07:24;16.10;;;15.20;;
15454;SDS011;21057;51.024;7.540;2022-07-29T10:09:54;16.40;;;15.40;;
15454;SDS011;21057;51.024;7.540;2022-07-29T10:12:22;16.60;;;15.60;;
15454;SDS011;21057;51.024;7.540;2022-07-29T10:14:50;16.17;;;15.15;;
15454;SDS011;21057;51.024;7.540;2022-07-29T10:17:18;16.08;;;15.18;;
15454;SDS011;21057;51.024;7.540;2022-07-29T10:19:45;17.30;;;16.30;;
15454;SDS011;21057;51.024;7.540;2022-07-29T10:22:13;17.77;;;16.13;;
15454;SDS011;21057;51.024;7.540;2022-07-29T10:24:40;17.58;;;16.27;;
15454;SDS011;21057;51.024;7.540;2022-07-29T10:27:09;17.13;;;16.20;;
15454;SDS011;21057;51.024;7.540;2022-07-29T10:29:36;17.40;;;16.40;;
15454;SDS011;21057;51.024;7.540;2022-07-29T10:32:08;17.00;;;15.80;;
15454;SDS011;21057;51.024;7.540;2022-07-29T10:34:49;17.63;;;16.52;;
15454;SDS011;21057;51.024;7.540;2022-07-29T10:37:28;17.95;;;16.65;;
15454;SDS011;21057;51.024;7.540;2022-07-29T10:40:16;17.77;;;16.58;;
15454;SDS011;21057;51.024;7.540;2022-07-29T10:43:08;17.73;;;16.25;;
15454;SDS011;21057;51.024;7.540;2022-07-29T10:45:44;17.48;;;16.35;;
15454;SDS011;21057;51.024;7.540;2022-07-29T10:48:11;17.52;;;16.52;;
15454;SDS011;21057;51.024;7.540;2022-07-29T10:50:52;17.08;;;16.02;;
15454;SDS011;21057;51.024;7.540;2022-07-29T10:53:20;17.50;;;16.50;;
15454;SDS011;21057;51.024;7.540;2022-07-29T10:55:48;17.58;;;16.45;;
15454;SDS011;21057;51.024;7.540;2022-07-29T10:58:18;18.13;;;16.90;;
15454;SDS011;21057;51.024;7.540;2022-07-29T11:00:47;16.90;;;15.90;;
15454;SDS011;21057;51.024;7.540;2022-07-29T11:06:09;17.60;;;16.50;;
15454;SDS011;21057;51.024;7.540;2022-07-29T11:08:36;16.98;;;15.93;;
15454;SDS011;21057;51.024;7.540;2022-07-29T11:13:59;17.50;;;16.40;;
15454;SDS011;21057;51.024;7.540;2022-07-29T11:16:26;16.92;;;15.95;;
15454;SDS011;21057;51.024;7.540;2022-07-29T11:19:27;17.17;;;16.05;;
15454;SDS011;21057;51.024;7.540;2022-07-29T11:21:54;16.92;;;15.82;;
15454;SDS011;21057;51.024;7.540;2022-07-29T11:24:22;17.02;;;15.80;;
15454;SDS011;21057;51.024;7.540;2022-07-29T11:27:07;17.88;;;16.45;;
15454;SDS011;21057;51.024;7.540;2022-07-29T11:29:37;17.25;;;16.15;;
15454;SDS011;21057;51.024;7.540;2022-07-29T11:32:08;17.48;;;16.27;;
15454;SDS011;21057;51.024;7.540;2022-07-29T11:34:37;16.77;;;15.77;;
15454;SDS011;21057;51.024;7.540;2022-07-29T11:37:15;16.83;;;15.73;;
15454;SDS011;21057;51.024;7.540;2022-07-29T11:39:47;16.67;;;15.68;;
15454;SDS011;21057;51.024;7.540;2022-07-29T11:42:43;17.25;;;16.15;;
15454;SDS011;21057;51.024;7.540;2022-07-29T11:45:13;16.77;;;15.77;;
15454;SDS011;21057;51.024;7.540;2022-07-29T11:47:51;16.88;;;15.88;;
15454;SDS011;21057;51.024;7.540;2022-07-29T11:50:26;16.60;;;15.60;;
15454;SDS011;21057;51.024;7.540;2022-07-29T11:52:56;16.77;;;15.63;;
15454;SDS011;21057;51.024;7.540;2022-07-29T11:55:23;16.90;;;15.90;;
15454;SDS011;21057;51.024;7.540;2022-07-29T11:57:51;17.40;;;16.17;;
15454;SDS011;21057;51.024;7.540;2022-07-29T12:00:25;16.65;;;15.55;;
15454;SDS011;21057;51.024;7.540;2022-07-29T12:02:54;17.48;;;16.42;;
15454;SDS011;21057;51.024;7.540;2022-07-29T12:05:24;17.17;;;16.17;;
15454;SDS011;21057;51.024;7.540;2022-07-29T12:08:03;17.20;;;16.05;;
15454;SDS011;21057;51.024;7.540;2022-07-29T12:10:31;16.45;;;15.45;;
15454;SDS011;21057;51.024;7.540;2022-07-29T12:12:58;16.63;;;15.52;;
15454;SDS011;21057;51.024;7.540;2022-07-29T12:15:27;17.27;;;16.27;;
15454;SDS011;21057;51.024;7.540;2022-07-29T12:17:54;17.45;;;16.20;;
15454;SDS011;21057;51.024;7.540;2022-07-29T12:20:24;17.15;;;16.15;;
15454;SDS011;21057;51.024;7.540;2022-07-29T12:22:53;17.17;;;16.00;;
15454;SDS011;21057;51.024;7.540;2022-07-29T12:25:21;17.50;;;16.23;;
15454;SDS011;21057;51.024;7.540;2022-07-29T12:27:59;15.85;;;14.85;;
15454;SDS011;21057;51.024;7.540;2022-07-29T12:30:38;17.17;;;16.08;;
15454;SDS011;21057;51.024;7.540;2022-07-29T12:33:11;16.95;;;15.90;;
15454;SDS011;21057;51.024;7.540;2022-07-29T12:35:39;17.42;;;16.33;;
15454;SDS011;21057;51.024;7.540;2022-07-29T12:38:09;16.98;;;15.82;;
15454;SDS011;21057;51.024;7.540;2022-07-29T12:40:37;17.00;;;15.90;;
15454;SDS011;21057;51.024;7.540;2022-07-29T12:43:05;16.75;;;15.70;;
15454;SDS011;21057;51.024;7.540;2022-07-29T12:45:36;16.77;;;15.77;;
15454;SDS011;21057;51.024;7.540;2022-07-29T12:48:05;17.15;;;15.77;;
15454;SDS011;21057;51.024;7.540;2022-07-29T12:50:34;16.52;;;15.43;;
15454;SDS011;21057;51.024;7.540;2022-07-29T12:53:07;16.42;;;15.43;;
15454;SDS011;21057;51.024;7.540;2022-07-29T12:55:40;17.00;;;16.10;;
15454;SDS011;21057;51.024;7.540;2022-07-29T12:58:07;16.92;;;15.70;;
15454;SDS011;21057;51.024;7.540;2022-07-29T13:00:34;17.95;;;16.65;;
15454;SDS011;21057;51.024;7.540;2022-07-29T13:03:03;16.25;;;15.32;;
15454;SDS011;21057;51.024;7.540;2022-07-29T13:05:39;15.88;;;14.98;;
15454;SDS011;21057;51.024;7.540;2022-07-29T13:08:13;17.20;;;16.10;;
15454;SDS011;21057;51.024;7.540;2022-07-29T13:10:41;16.77;;;15.68;;
15454;SDS011;21057;51.024;7.540;2022-07-29T13:13:09;17.63;;;16.38;;
15454;SDS011;21057;51.024;7.540;2022-07-29T13:15:37;16.52;;;15.55;;
15454;SDS011;21057;51.024;7.540;2022-07-29T13:18:25;17.05;;;15.95;;
15454;SDS011;21057;51.024;7.540;2022-07-29T13:20:53;16.80;;;15.77;;
15454;SDS011;21057;51.024;7.540;2022-07-29T13:23:20;17.13;;;16.13;;
15454;SDS011;21057;51.024;7.540;2022-07-29T13:25:47;17.05;;;16.05;;
15454;SDS011;21057;51.024;7.540;2022-07-29T13:28:14;16.55;;;15.65;;
15454;SDS011;21057;51.024;7.540;2022-07-29T13:30:42;17.38;;;16.23;;
15454;SDS011;21057;51.024;7.540;2022-07-29T13:33:10;17.63;;;16.50;;
15454;SDS011;21057;51.024;7.540;2022-07-29T13:35:37;16.98;;;15.90;;
15454;SDS011;21057;51.024;7.540;2022-07-29T13:38:04;16.10;;;15.20;;
15454;SDS011;21057;51.024;7.540;2022-07-29T13:40:31;16.77;;;15.68;;
15454;SDS011;21057;51.024;7.540;2022-07-29T13:43:00;16.55;;;15.35;;
15454;SDS011;21057;51.024;7.540;2022-07-29T13:45:27;16.52;;;15.43;;
15454;SDS011;21057;51.024;7.540;2022-07-29T13:47:54;17.52;;;16.10;;
15454;SDS011;21057;51.024;7.540;2022-07-29T13:50:22;16.90;;;15.90;;
15454;SDS011;21057;51.024;7.540;2022-07-29T13:52:49;16.08;;;15.00;;
15454;SDS011;21057;51.024;7.540;2022-07-29T13:55:16;16.48;;;15.30;;
15454;SDS011;21057;51.024;7.540;2022-07-29T13:57:43;16.05;;;14.98;;
15454;SDS011;21057;51.024;7.540;2022-07-29T14:00:10;15.98;;;14.85;;
15454;SDS011;21057;51.024;7.540;2022-07-29T14:02:38;14.93;;;14.02;;
15454;SDS011;21057;51.024;7.540;2022-07-29T14:05:05;15.70;;;14.70;;
15454;SDS011;21057;51.024;7.540;2022-07-29T14:07:34;16.08;;;14.88;;
15454;SDS011;21057;51.024;7.540;2022-07-29T14:10:01;15.77;;;14.77;;
15454;SDS011;21057;51.024;7.540;2022-07-29T14:12:29;16.13;;;15.13;;
15454;SDS011;21057;51.024;7.540;2022-07-29T14:14:55;16.63;;;15.43;;
15454;SDS011;21057;51.024;7.540;2022-07-29T14:17:22;16.00;;;15.00;;
15454;SDS011;21057;51.024;7.540;2022-07-29T14:19:49;16.27;;;15.18;;
15454;SDS011;21057;51.024;7.540;2022-07-29T14:22:16;16.83;;;15.65;;
15454;SDS011;21057;51.024;7.540;2022-07-29T14:24:45;16.63;;;15.48;;
15454;SDS011;21057;51.024;7.540;2022-07-29T14:27:12;17.33;;;16.10;;
15454;SDS011;21057;51.024;7.540;2022-07-29T14:29:39;16.45;;;15.45;;
15454;SDS011;21057;51.024;7.540;2022-07-29T14:32:06;17.10;;;15.68;;
15454;SDS011;21057;51.024;7.540;2022-07-29T14:34:34;17.17;;;15.95;;
15454;SDS011;21057;51.024;7.540;2022-07-29T14:37:01;17.45;;;16.38;;
15454;SDS011;21057;51.024;7.540;2022-07-29T14:39:30;16.75;;;15.55;;